Terminal Aerodrome Forecast
Issued by NWS

Home | Current Version | Previous Version | Text Only | Print | Product List | Glossary On
Versions: 1 2 3 4 5 6 7 8 9 10 11 12
000
FTUS43 KICT 130538
TAFCNU
TAF
KCNU 130538Z 1306/1406 21011KT P6SM SKC
     FM130800 20010KT P6SM SKC
     FM131500 26014KT P6SM SKC
     FM131800 32016G24KT P6SM SCT250
     FM132300 34010KT P6SM BKN250=

USA.gov is the U.S. government's official web portal to all federal, state and local government web resources and services.